sensor_id;sensor_type;location;lat;lon;timestamp;pressure;altitude;pressure_sealevel;temperature;humidity
13968;BME280;39536;52.198;9.920;2022-10-16T00:00:12;100217.97;;;15.16;82.43
13968;BME280;39536;52.198;9.920;2022-10-16T00:02:39;100225.25;;;15.11;82.55
13968;BME280;39536;52.198;9.920;2022-10-16T00:05:05;100228.94;;;15.08;82.94
13968;BME280;39536;52.198;9.920;2022-10-16T00:07:32;100228.94;;;15.08;83.43
13968;BME280;39536;52.198;9.920;2022-10-16T00:09:58;100230.88;;;15.05;83.52
13968;BME280;39536;52.198;9.920;2022-10-16T00:12:26;100237.81;;;15.06;83.75
13968;BME280;39536;52.198;9.920;2022-10-16T00:14:52;100225.63;;;15.05;83.76
13968;BME280;39536;52.198;9.920;2022-10-16T00:17:19;100230.94;;;15.03;83.95
13968;BME280;39536;52.198;9.920;2022-10-16T00:19:45;100228.50;;;15.00;84.36
13968;BME280;39536;52.198;9.920;2022-10-16T00:22:12;100240.09;;;14.96;84.16
13968;BME280;39536;52.198;9.920;2022-10-16T00:24:38;100248.38;;;14.88;84.57
13968;BME280;39536;52.198;9.920;2022-10-16T00:27:05;100238.91;;;14.86;84.59
13968;BME280;39536;52.198;9.920;2022-10-16T00:29:33;100240.69;;;14.85;84.40
13968;BME280;39536;52.198;9.920;2022-10-16T00:31:59;100240.19;;;14.78;84.36
13968;BME280;39536;52.198;9.920;2022-10-16T00:34:25;100241.19;;;14.76;84.54
13968;BME280;39536;52.198;9.920;2022-10-16T00:36:52;100254.47;;;14.73;84.53
13968;BME280;39536;52.198;9.920;2022-10-16T00:39:19;100256.91;;;14.76;84.39
13968;BME280;39536;52.198;9.920;2022-10-16T00:41:45;100266.22;;;14.82;84.27
13968;BME280;39536;52.198;9.920;2022-10-16T00:44:43;100265.56;;;14.78;84.33
13968;BME280;39536;52.198;9.920;2022-10-16T00:47:11;100255.84;;;14.80;84.42
13968;BME280;39536;52.198;9.920;2022-10-16T00:49:39;100260.22;;;14.79;84.39
13968;BME280;39536;52.198;9.920;2022-10-16T00:52:05;100263.88;;;14.77;84.98
13968;BME280;39536;52.198;9.920;2022-10-16T00:54:32;100268.63;;;14.86;84.56
13968;BME280;39536;52.198;9.920;2022-10-16T00:57:01;100273.88;;;14.86;84.49
13968;BME280;39536;52.198;9.920;2022-10-16T00:59:33;100271.63;;;14.78;84.87
13968;BME280;39536;52.198;9.920;2022-10-16T01:02:02;100270.69;;;14.79;84.90
13968;BME280;39536;52.198;9.920;2022-10-16T01:04:32;100274.03;;;14.83;85.18
13968;BME280;39536;52.198;9.920;2022-10-16T01:07:05;100268.34;;;14.91;85.00
13968;BME280;39536;52.198;9.920;2022-10-16T01:09:37;100269.53;;;14.85;85.46
13968;BME280;39536;52.198;9.920;2022-10-16T01:12:11;100267.56;;;14.89;85.69
13968;BME280;39536;52.198;9.920;2022-10-16T01:14:46;100256.91;;;14.92;85.55
13968;BME280;39536;52.198;9.920;2022-10-16T01:17:19;100265.56;;;14.94;85.64
13968;BME280;39536;52.198;9.920;2022-10-16T01:20:02;100257.53;;;14.97;85.50
13968;BME280;39536;52.198;9.920;2022-10-16T01:22:37;100256.19;;;14.90;86.01
13968;BME280;39536;52.198;9.920;2022-10-16T01:25:09;100252.53;;;14.92;86.48
13968;BME280;39536;52.198;9.920;2022-10-16T01:27:40;100267.34;;;14.93;86.40
13968;BME280;39536;52.198;9.920;2022-10-16T01:30:13;100262.09;;;14.93;86.36
13968;BME280;39536;52.198;9.920;2022-10-16T01:32:44;100272.50;;;14.95;86.62
13968;BME280;39536;52.198;9.920;2022-10-16T01:35:18;100269.13;;;14.93;86.66
13968;BME280;39536;52.198;9.920;2022-10-16T01:37:50;100263.09;;;14.91;86.82
13968;BME280;39536;52.198;9.920;2022-10-16T01:40:20;100264.13;;;14.88;87.10
13968;BME280;39536;52.198;9.920;2022-10-16T01:42:50;100274.78;;;14.85;87.35
13968;BME280;39536;52.198;9.920;2022-10-16T01:45:19;100277.22;;;14.88;87.22
13968;BME280;39536;52.198;9.920;2022-10-16T01:47:47;100282.41;;;14.90;87.40
13968;BME280;39536;52.198;9.920;2022-10-16T01:50:17;100290.94;;;14.93;87.05
13968;BME280;39536;52.198;9.920;2022-10-16T01:52:46;100291.88;;;14.92;86.88
13968;BME280;39536;52.198;9.920;2022-10-16T01:55:19;100288.38;;;14.92;86.98
13968;BME280;39536;52.198;9.920;2022-10-16T01:57:50;100282.41;;;14.90;86.76
13968;BME280;39536;52.198;9.920;2022-10-16T02:00:18;100286.63;;;14.92;87.16
13968;BME280;39536;52.198;9.920;2022-10-16T02:02:49;100285.69;;;14.93;87.24
13968;BME280;39536;52.198;9.920;2022-10-16T02:05:19;100291.72;;;14.95;86.98
13968;BME280;39536;52.198;9.920;2022-10-16T02:07:47;100301.50;;;14.92;86.68
13968;BME280;39536;52.198;9.920;2022-10-16T02:10:14;100298.03;;;14.91;86.91
13968;BME280;39536;52.198;9.920;2022-10-16T02:12:43;100308.53;;;14.91;86.74
13968;BME280;39536;52.198;9.920;2022-10-16T02:15:13;100305.06;;;14.91;86.64
13968;BME280;39536;52.198;9.920;2022-10-16T02:17:39;100307.94;;;14.86;86.84
13968;BME280;39536;52.198;9.920;2022-10-16T02:20:07;100313.94;;;14.88;86.89
13968;BME280;39536;52.198;9.920;2022-10-16T02:22:36;100315.81;;;14.86;86.80
13968;BME280;39536;52.198;9.920;2022-10-16T02:25:06;100316.72;;;14.85;86.85
13968;BME280;39536;52.198;9.920;2022-10-16T02:27:39;100322.25;;;14.81;86.85
13968;BME280;39536;52.198;9.920;2022-10-16T02:30:19;100325.59;;;14.83;86.85
13968;BME280;39536;52.198;9.920;2022-10-16T02:32:48;100330.44;;;14.74;87.10
13968;BME280;39536;52.198;9.920;2022-10-16T02:35:17;100327.97;;;14.71;87.35
13968;BME280;39536;52.198;9.920;2022-10-16T02:37:46;100323.22;;;14.62;87.55
13968;BME280;39536;52.198;9.920;2022-10-16T02:40:13;100323.13;;;14.64;87.70
13968;BME280;39536;52.198;9.920;2022-10-16T02:42:40;100321.69;;;14.58;87.75
13968;BME280;39536;52.198;9.920;2022-10-16T02:45:09;100318.44;;;14.53;88.11
13968;BME280;39536;52.198;9.920;2022-10-16T02:47:38;100319.53;;;14.49;88.18
13968;BME280;39536;52.198;9.920;2022-10-16T02:50:05;100314.06;;;14.53;88.10
13968;BME280;39536;52.198;9.920;2022-10-16T02:52:32;100316.50;;;14.57;87.93
13968;BME280;39536;52.198;9.920;2022-10-16T02:54:58;100323.44;;;14.58;87.79
13968;BME280;39536;52.198;9.920;2022-10-16T02:57:25;100317.44;;;14.55;87.86
13968;BME280;39536;52.198;9.920;2022-10-16T02:59:52;100319.06;;;14.58;87.89
13968;BME280;39536;52.198;9.920;2022-10-16T03:02:19;100318.50;;;14.51;87.83
13968;BME280;39536;52.198;9.920;2022-10-16T03:04:47;100319.84;;;14.43;88.33
13968;BME280;39536;52.198;9.920;2022-10-16T03:07:13;100317.97;;;14.45;88.26
13968;BME280;39536;52.198;9.920;2022-10-16T03:09:40;100302.34;;;14.43;88.16
13968;BME280;39536;52.198;9.920;2022-10-16T03:12:06;100309.41;;;14.41;88.24
13968;BME280;39536;52.198;9.920;2022-10-16T03:14:33;100303.44;;;14.39;88.53
13968;BME280;39536;52.198;9.920;2022-10-16T03:16:59;100302.66;;;14.37;88.48
13968;BME280;39536;52.198;9.920;2022-10-16T03:19:26;100307.91;;;14.37;88.65
13968;BME280;39536;52.198;9.920;2022-10-16T03:21:54;100306.22;;;14.36;88.17
13968;BME280;39536;52.198;9.920;2022-10-16T03:24:20;100308.84;;;14.36;88.66
13968;BME280;39536;52.198;9.920;2022-10-16T03:26:47;100313.72;;;14.42;88.24
13968;BME280;39536;52.198;9.920;2022-10-16T03:29:13;100312.72;;;14.45;88.06
13968;BME280;39536;52.198;9.920;2022-10-16T03:31:40;100320.41;;;14.48;87.79
13968;BME280;39536;52.198;9.920;2022-10-16T03:34:07;100318.81;;;14.45;87.56
13968;BME280;39536;52.198;9.920;2022-10-16T03:36:33;100312.56;;;14.48;87.52
13968;BME280;39536;52.198;9.920;2022-10-16T03:39:01;100314.16;;;14.52;87.23
13968;BME280;39536;52.198;9.920;2022-10-16T03:41:28;100316.78;;;14.52;87.23
13968;BME280;39536;52.198;9.920;2022-10-16T03:43:54;100320.41;;;14.48;87.52
13968;BME280;39536;52.198;9.920;2022-10-16T03:46:21;100322.91;;;14.51;87.47
13968;BME280;39536;52.198;9.920;2022-10-16T03:48:48;100320.13;;;14.54;87.57
13968;BME280;39536;52.198;9.920;2022-10-16T03:51:14;100325.47;;;14.52;87.81
13968;BME280;39536;52.198;9.920;2022-10-16T03:53:41;100321.06;;;14.53;87.72
13968;BME280;39536;52.198;9.920;2022-10-16T03:56:09;100318.44;;;14.53;87.65
13968;BME280;39536;52.198;9.920;2022-10-16T03:58:35;100317.50;;;14.54;87.72
13968;BME280;39536;52.198;9.920;2022-10-16T04:01:02;100314.06;;;14.53;87.76
13968;BME280;39536;52.198;9.920;2022-10-16T04:03:28;100322.84;;;14.52;87.70
13968;BME280;39536;52.198;9.920;2022-10-16T04:05:55;100324.53;;;14.53;87.94
13968;BME280;39536;52.198;9.920;2022-10-16T04:08:21;100321.53;;;14.44;88.27
13968;BME280;39536;52.198;9.920;2022-10-16T04:10:48;100315.22;;;14.30;89.04
13968;BME280;39536;52.198;9.920;2022-10-16T04:13:16;100308.22;;;14.31;89.34
13968;BME280;39536;52.198;9.920;2022-10-16T04:15:44;100318.84;;;14.28;89.55
13968;BME280;39536;52.198;9.920;2022-10-16T04:18:11;100326.88;;;14.25;89.80
13968;BME280;39536;52.198;9.920;2022-10-16T04:20:37;100339.81;;;14.28;89.79
13968;BME280;39536;52.198;9.920;2022-10-16T04:23:04;100342.34;;;14.29;90.07
13968;BME280;39536;52.198;9.920;2022-10-16T04:25:30;100346.81;;;14.27;90.10
13968;BME280;39536;52.198;9.920;2022-10-16T04:27:57;100352.44;;;14.20;90.69
13968;BME280;39536;52.198;9.920;2022-10-16T04:30:25;100351.59;;;14.19;90.65
13968;BME280;39536;52.198;9.920;2022-10-16T04:32:52;100355.06;;;14.20;91.33
13968;BME280;39536;52.198;9.920;2022-10-16T04:35:19;100352.38;;;14.21;91.02
13968;BME280;39536;52.198;9.920;2022-10-16T04:37:46;100350.59;;;14.22;91.04
13968;BME280;39536;52.198;9.920;2022-10-16T04:40:13;100348.97;;;14.19;91.14
13968;BME280;39536;52.198;9.920;2022-10-16T04:42:40;100353.28;;;14.20;91.24
13968;BME280;39536;52.198;9.920;2022-10-16T04:45:07;100339.50;;;14.17;91.32
13968;BME280;39536;52.198;9.920;2022-10-16T04:47:35;100344.56;;;14.20;91.27
13968;BME280;39536;52.198;9.920;2022-10-16T04:50:02;100334.94;;;14.20;91.40
13968;BME280;39536;52.198;9.920;2022-10-16T04:52:29;100341.81;;;14.23;91.22
13968;BME280;39536;52.198;9.920;2022-10-16T04:54:56;100342.59;;;14.25;91.10
13968;BME280;39536;52.198;9.920;2022-10-16T04:57:26;100346.88;;;14.26;91.31
13968;BME280;39536;52.198;9.920;2022-10-16T04:59:53;100358.22;;;14.26;90.95
13968;BME280;39536;52.198;9.920;2022-10-16T05:02:19;100363.59;;;14.23;91.21
13968;BME280;39536;52.198;9.920;2022-10-16T05:04:47;100354.06;;;14.22;91.37
13968;BME280;39536;52.198;9.920;2022-10-16T05:07:14;100357.38;;;14.26;91.47
13968;BME280;39536;52.198;9.920;2022-10-16T05:09:40;100374.03;;;14.25;91.65
13968;BME280;39536;52.198;9.920;2022-10-16T05:12:07;100362.59;;;14.26;91.63
13968;BME280;39536;52.198;9.920;2022-10-16T05:14:33;100357.22;;;14.29;91.49
13968;BME280;39536;52.198;9.920;2022-10-16T05:17:00;100357.63;;;14.21;91.79
13968;BME280;39536;52.198;9.920;2022-10-16T05:19:27;100362.00;;;14.21;91.86
13968;BME280;39536;52.198;9.920;2022-10-16T05:21:55;100367.09;;;14.24;91.96
13968;BME280;39536;52.198;9.920;2022-10-16T05:24:21;100361.91;;;14.22;92.13
13968;BME280;39536;52.198;9.920;2022-10-16T05:26:48;100369.78;;;14.22;91.98
13968;BME280;39536;52.198;9.920;2022-10-16T05:29:14;100382.03;;;14.22;92.03
13968;BME280;39536;52.198;9.920;2022-10-16T05:31:41;100380.34;;;14.21;92.40
13968;BME280;39536;52.198;9.920;2022-10-16T05:34:07;100388.44;;;14.16;92.14
13968;BME280;39536;52.198;9.920;2022-10-16T05:36:34;100389.22;;;14.18;91.95
13968;BME280;39536;52.198;9.920;2022-10-16T05:39:02;100394.66;;;14.14;92.14
13968;BME280;39536;52.198;9.920;2022-10-16T05:41:29;100394.66;;;14.14;92.09
13968;BME280;39536;52.198;9.920;2022-10-16T05:43:56;100394.13;;;14.07;91.95
13968;BME280;39536;52.198;9.920;2022-10-16T05:46:23;100395.59;;;14.13;91.67
13968;BME280;39536;52.198;9.920;2022-10-16T05:48:51;100391.44;;;14.08;91.69
13968;BME280;39536;52.198;9.920;2022-10-16T05:51:18;100395.41;;;13.98;91.85
13968;BME280;39536;52.198;9.920;2022-10-16T05:53:44;100396.28;;;13.99;92.03
13968;BME280;39536;52.198;9.920;2022-10-16T05:56:12;100391.75;;;14.02;91.88
13968;BME280;39536;52.198;9.920;2022-10-16T05:58:39;100394.97;;;14.07;91.71
13968;BME280;39536;52.198;9.920;2022-10-16T06:01:07;100405.59;;;14.04;91.56
13968;BME280;39536;52.198;9.920;2022-10-16T06:03:35;100404.53;;;14.08;91.42
13968;BME280;39536;52.198;9.920;2022-10-16T06:06:07;100423.63;;;14.10;91.13
13968;BME280;39536;52.198;9.920;2022-10-16T06:08:34;100419.31;;;14.09;91.26
13968;BME280;39536;52.198;9.920;2022-10-16T06:11:02;100420.09;;;14.12;91.40
13968;BME280;39536;52.198;9.920;2022-10-16T06:13:30;100414.56;;;14.18;91.01
13968;BME280;39536;52.198;9.920;2022-10-16T06:15:57;100413.38;;;14.23;90.84
13968;BME280;39536;52.198;9.920;2022-10-16T06:18:24;100412.53;;;14.23;90.52
13968;BME280;39536;52.198;9.920;2022-10-16T06:20:51;100415.84;;;14.26;90.58
13968;BME280;39536;52.198;9.920;2022-10-16T06:23:17;100420.34;;;14.24;90.36
13968;BME280;39536;52.198;9.920;2022-10-16T06:25:44;100437.59;;;14.28;90.55
13968;BME280;39536;52.198;9.920;2022-10-16T06:28:10;100439.22;;;14.31;90.58
13968;BME280;39536;52.198;9.920;2022-10-16T06:30:38;100437.38;;;14.33;90.36
13968;BME280;39536;52.198;9.920;2022-10-16T06:33:05;100450.09;;;14.41;90.37
13968;BME280;39536;52.198;9.920;2022-10-16T06:35:31;100460.41;;;14.44;89.99
13968;BME280;39536;52.198;9.920;2022-10-16T06:37:58;100454.09;;;14.48;90.20
13968;BME280;39536;52.198;9.920;2022-10-16T06:40:24;100440.81;;;14.52;89.92
13968;BME280;39536;52.198;9.920;2022-10-16T06:42:51;100445.75;;;14.59;90.09
13968;BME280;39536;52.198;9.920;2022-10-16T06:45:20;100458.44;;;14.66;89.58
13968;BME280;39536;52.198;9.920;2022-10-16T06:47:48;100454.91;;;14.67;89.56
13968;BME280;39536;52.198;9.920;2022-10-16T06:50:15;100459.06;;;14.71;89.36
13968;BME280;39536;52.198;9.920;2022-10-16T06:52:41;100454.50;;;14.75;89.38
13968;BME280;39536;52.198;9.920;2022-10-16T06:55:08;100459.44;;;14.81;89.50
13968;BME280;39536;52.198;9.920;2022-10-16T06:57:34;100466.16;;;14.87;89.23
13968;BME280;39536;52.198;9.920;2022-10-16T07:00:01;100467.38;;;14.97;89.17
13968;BME280;39536;52.198;9.920;2022-10-16T07:02:27;100473.38;;;14.99;88.89
13968;BME280;39536;52.198;9.920;2022-10-16T07:04:55;100486.78;;;15.10;88.38
13968;BME280;39536;52.198;9.920;2022-10-16T07:07:22;100482.66;;;15.22;87.96
13968;BME280;39536;52.198;9.920;2022-10-16T07:09:49;100477.94;;;15.29;87.61
13968;BME280;39536;52.198;9.920;2022-10-16T07:12:16;100474.44;;;15.45;86.77
13968;BME280;39536;52.198;9.920;2022-10-16T07:14:43;100480.03;;;15.55;85.73
13968;BME280;39536;52.198;9.920;2022-10-16T07:17:10;100483.16;;;15.62;85.33
13968;BME280;39536;52.198;9.920;2022-10-16T07:19:36;100501.59;;;15.60;85.04
13968;BME280;39536;52.198;9.920;2022-10-16T07:22:04;100490.03;;;15.64;85.00
13968;BME280;39536;52.198;9.920;2022-10-16T07:24:31;100488.13;;;15.68;84.79
13968;BME280;39536;52.198;9.920;2022-10-16T07:26:58;100490.47;;;15.73;84.57
13968;BME280;39536;52.198;9.920;2022-10-16T07:29:24;100494.66;;;15.77;84.26
13968;BME280;39536;52.198;9.920;2022-10-16T07:31:51;100507.50;;;15.81;83.50
13968;BME280;39536;52.198;9.920;2022-10-16T07:34:19;100504.31;;;15.92;82.94
13968;BME280;39536;52.198;9.920;2022-10-16T07:36:47;100514.66;;;15.95;82.80
13968;BME280;39536;52.198;9.920;2022-10-16T07:39:16;100525.06;;;15.97;82.37
13968;BME280;39536;52.198;9.920;2022-10-16T07:41:42;100522.19;;;16.01;82.34
13968;BME280;39536;52.198;9.920;2022-10-16T07:44:09;100508.19;;;16.01;82.33
13968;BME280;39536;52.198;9.920;2022-10-16T07:46:35;100501.41;;;16.12;82.18
13968;BME280;39536;52.198;9.920;2022-10-16T07:49:02;100524.47;;;16.23;82.12
13968;BME280;39536;52.198;9.920;2022-10-16T07:51:29;100523.78;;;16.35;81.41
13968;BME280;39536;52.198;9.920;2022-10-16T07:53:55;100528.00;;;16.38;80.43
13968;BME280;39536;52.198;9.920;2022-10-16T07:56:23;100533.06;;;16.41;80.05
13968;BME280;39536;52.198;9.920;2022-10-16T07:58:50;100533.50;;;16.49;79.62
13968;BME280;39536;52.198;9.920;2022-10-16T08:01:17;100531.72;;;16.50;79.41
13968;BME280;39536;52.198;9.920;2022-10-16T08:03:45;100539.25;;;16.56;79.75
13968;BME280;39536;52.198;9.920;2022-10-16T08:06:12;100545.34;;;16.56;79.71
13968;BME280;39536;52.198;9.920;2022-10-16T08:08:39;100540.97;;;16.41;79.39
13968;BME280;39536;52.198;9.920;2022-10-16T08:11:05;100542.69;;;16.42;79.70
13968;BME280;39536;52.198;9.920;2022-10-16T08:13:33;100547.66;;;16.47;79.64
13968;BME280;39536;52.198;9.920;2022-10-16T08:16:00;100555.03;;;16.56;79.46
13968;BME280;39536;52.198;9.920;2022-10-16T08:18:28;100571.75;;;16.55;79.38
13968;BME280;39536;52.198;9.920;2022-10-16T08:20:55;100566.66;;;16.52;79.23
13968;BME280;39536;52.198;9.920;2022-10-16T08:23:23;100569.47;;;16.49;80.03
13968;BME280;39536;52.198;9.920;2022-10-16T08:25:51;100579.16;;;16.48;80.16
13968;BME280;39536;52.198;9.920;2022-10-16T08:28:17;100585.13;;;16.50;80.00
13968;BME280;39536;52.198;9.920;2022-10-16T08:30:47;100575.28;;;16.54;79.67
13968;BME280;39536;52.198;9.920;2022-10-16T08:33:14;100577.84;;;16.55;79.96
13968;BME280;39536;52.198;9.920;2022-10-16T08:35:41;100583.72;;;16.60;80.12
13968;BME280;39536;52.198;9.920;2022-10-16T08:38:07;100583.09;;;16.71;79.79
13968;BME280;39536;52.198;9.920;2022-10-16T08:40:36;100591.81;;;16.72;80.13
13968;BME280;39536;52.198;9.920;2022-10-16T08:43:18;100579.84;;;16.82;79.20
13968;BME280;39536;52.198;9.920;2022-10-16T08:46:05;100583.56;;;16.94;78.73
13968;BME280;39536;52.198;9.920;2022-10-16T08:48:43;100587.16;;;17.07;78.80
13968;BME280;39536;52.198;9.920;2022-10-16T08:51:18;100587.19;;;17.21;78.01
13968;BME280;39536;52.198;9.920;2022-10-16T08:53:49;100585.22;;;17.25;77.21
13968;BME280;39536;52.198;9.920;2022-10-16T08:56:17;100586.28;;;17.37;77.10
13968;BME280;39536;52.198;9.920;2022-10-16T08:58:44;100596.63;;;17.40;76.78
13968;BME280;39536;52.198;9.920;2022-10-16T09:01:15;100592.94;;;17.28;76.72
13968;BME280;39536;52.198;9.920;2022-10-16T09:04:00;100601.44;;;17.33;76.98
13968;BME280;39536;52.198;9.920;2022-10-16T09:06:49;100601.31;;;17.20;76.96
13968;BME280;39536;52.198;9.920;2022-10-16T09:09:34;100602.88;;;17.08;77.13
13968;BME280;39536;52.198;9.920;2022-10-16T09:12:12;100606.94;;;17.14;76.77
13968;BME280;39536;52.198;9.920;2022-10-16T09:14:58;100617.78;;;17.24;76.49
13968;BME280;39536;52.198;9.920;2022-10-16T09:17:38;100613.81;;;17.31;75.38
13968;BME280;39536;52.198;9.920;2022-10-16T09:20:20;100619.19;;;17.44;74.30
13968;BME280;39536;52.198;9.920;2022-10-16T09:22:51;100615.47;;;17.48;74.44
13968;BME280;39536;52.198;9.920;2022-10-16T09:25:21;100616.75;;;17.41;74.56
13968;BME280;39536;52.198;9.920;2022-10-16T09:27:52;100628.59;;;17.34;73.77
13968;BME280;39536;52.198;9.920;2022-10-16T09:30:20;100621.28;;;17.39;73.21
13968;BME280;39536;52.198;9.920;2022-10-16T09:32:50;100624.03;;;17.51;72.95
13968;BME280;39536;52.198;9.920;2022-10-16T09:35:19;100621.22;;;17.54;72.62
13968;BME280;39536;52.198;9.920;2022-10-16T09:37:48;100640.19;;;17.60;72.44
13968;BME280;39536;52.198;9.920;2022-10-16T09:40:25;100636.16;;;17.54;72.38
13968;BME280;39536;52.198;9.920;2022-10-16T09:42:56;100639.94;;;17.64;71.66
13968;BME280;39536;52.198;9.920;2022-10-16T09:45:24;100644.13;;;17.83;70.83
13968;BME280;39536;52.198;9.920;2022-10-16T09:47:51;100644.88;;;17.99;70.96
13968;BME280;39536;52.198;9.920;2022-10-16T09:50:23;100645.72;;;17.99;70.82
13968;BME280;39536;52.198;9.920;2022-10-16T09:53:03;100662.19;;;17.89;71.52
13968;BME280;39536;52.198;9.920;2022-10-16T09:55:29;100651.28;;;17.95;70.20
13968;BME280;39536;52.198;9.920;2022-10-16T09:57:56;100646.09;;;18.08;69.13
13968;BME280;39536;52.198;9.920;2022-10-16T10:00:24;100657.56;;;18.07;68.65
13968;BME280;39536;52.198;9.920;2022-10-16T10:03:11;100674.78;;;18.12;68.87
13968;BME280;39536;52.198;9.920;2022-10-16T10:05:38;100673.00;;;18.27;68.33
13968;BME280;39536;52.198;9.920;2022-10-16T10:08:05;100679.97;;;18.42;68.20
13968;BME280;39536;52.198;9.920;2022-10-16T10:10:36;100674.41;;;18.33;67.74
13968;BME280;39536;52.198;9.920;2022-10-16T10:13:17;100677.97;;;18.46;67.31
13968;BME280;39536;52.198;9.920;2022-10-16T10:15:45;100678.88;;;18.59;66.93
13968;BME280;39536;52.198;9.920;2022-10-16T10:18:18;100678.94;;;18.72;66.06
13968;BME280;39536;52.198;9.920;2022-10-16T10:20:45;100677.94;;;18.60;65.75
13968;BME280;39536;52.198;9.920;2022-10-16T10:23:20;100673.19;;;18.65;65.72
13968;BME280;39536;52.198;9.920;2022-10-16T10:25:53;100673.19;;;18.65;65.36
13968;BME280;39536;52.198;9.920;2022-10-16T10:28:45;100676.50;;;18.83;65.17
13968;BME280;39536;52.198;9.920;2022-10-16T10:31:20;100674.28;;;18.90;65.22
13968;BME280;39536;52.198;9.920;2022-10-16T10:33:53;100690.13;;;19.17;64.03
13968;BME280;39536;52.198;9.920;2022-10-16T10:36:28;100681.69;;;19.25;63.51
13968;BME280;39536;52.198;9.920;2022-10-16T10:38:58;100686.88;;;19.26;63.78
13968;BME280;39536;52.198;9.920;2022-10-16T10:44:35;100691.34;;;19.38;63.14
13968;BME280;39536;52.198;9.920;2022-10-16T10:47:13;100687.09;;;19.36;62.94
13968;BME280;39536;52.198;9.920;2022-10-16T10:49:53;100693.34;;;19.35;63.29
13968;BME280;39536;52.198;9.920;2022-10-16T10:52:34;100694.63;;;19.55;61.32
13968;BME280;39536;52.198;9.920;2022-10-16T10:55:10;100699.91;;;19.55;60.95
13968;BME280;39536;52.198;9.920;2022-10-16T10:57:46;100699.16;;;19.40;60.96
13968;BME280;39536;52.198;9.920;2022-10-16T11:00:21;100706.66;;;19.46;61.71
13968;BME280;39536;52.198;9.920;2022-10-16T11:03:00;100702.56;;;19.15;61.38
13968;BME280;39536;52.198;9.920;2022-10-16T11:05:40;100702.59;;;19.28;62.10
13968;BME280;39536;52.198;9.920;2022-10-16T11:08:13;100707.94;;;19.01;63.00
13968;BME280;39536;52.198;9.920;2022-10-16T11:10:47;100707.81;;;19.02;63.04
13968;BME280;39536;52.198;9.920;2022-10-16T11:13:23;100713.41;;;18.98;62.54
13968;BME280;39536;52.198;9.920;2022-10-16T11:15:55;100709.66;;;19.14;62.05
13968;BME280;39536;52.198;9.920;2022-10-16T11:18:29;100706.66;;;19.06;60.92
13968;BME280;39536;52.198;9.920;2022-10-16T11:21:00;100705.69;;;18.95;61.06
13968;BME280;39536;52.198;9.920;2022-10-16T11:23:32;100710.97;;;18.95;60.59
13968;BME280;39536;52.198;9.920;2022-10-16T11:26:04;100712.09;;;19.18;59.69
13968;BME280;39536;52.198;9.920;2022-10-16T11:28:34;100707.41;;;19.35;59.30
13968;BME280;39536;52.198;9.920;2022-10-16T11:31:08;100717.22;;;19.46;58.81
13968;BME280;39536;52.198;9.920;2022-10-16T11:33:39;100715.09;;;19.26;59.02
13968;BME280;39536;52.198;9.920;2022-10-16T11:36:12;100726.66;;;19.10;58.29
13968;BME280;39536;52.198;9.920;2022-10-16T11:38:44;100730.09;;;18.98;58.74
13968;BME280;39536;52.198;9.920;2022-10-16T11:41:19;100727.88;;;18.78;60.19
13968;BME280;39536;52.198;9.920;2022-10-16T11:43:54;100734.34;;;18.86;59.85
13968;BME280;39536;52.198;9.920;2022-10-16T11:46:25;100720.97;;;18.89;59.13
13968;BME280;39536;52.198;9.920;2022-10-16T11:48:59;100744.94;;;19.13;58.45
13968;BME280;39536;52.198;9.920;2022-10-16T11:51:51;100730.38;;;18.93;58.71
13968;BME280;39536;52.198;9.920;2022-10-16T11:54:26;100734.78;;;19.07;57.92
13968;BME280;39536;52.198;9.920;2022-10-16T11:57:00;100734.34;;;19.41;57.67
13968;BME280;39536;52.198;9.920;2022-10-16T11:59:34;100736.16;;;19.53;57.10
13968;BME280;39536;52.198;9.920;2022-10-16T12:02:24;100734.53;;;19.37;56.63
13968;BME280;39536;52.198;9.920;2022-10-16T12:05:05;100746.91;;;19.37;56.93
13968;BME280;39536;52.198;9.920;2022-10-16T12:07:38;100746.03;;;19.64;56.04
13968;BME280;39536;52.198;9.920;2022-10-16T12:10:20;100744.06;;;19.80;55.64
13968;BME280;39536;52.198;9.920;2022-10-16T12:12:47;100746.09;;;19.89;55.47
13968;BME280;39536;52.198;9.920;2022-10-16T12:15:23;100748.38;;;19.68;55.29
13968;BME280;39536;52.198;9.920;2022-10-16T12:17:50;100751.78;;;19.83;55.64
13968;BME280;39536;52.198;9.920;2022-10-16T12:20:24;100753.28;;;19.87;56.15
13968;BME280;39536;52.198;9.920;2022-10-16T12:22:54;100749.38;;;20.05;55.90
13968;BME280;39536;52.198;9.920;2022-10-16T12:25:25;100752.75;;;20.20;55.88
13968;BME280;39536;52.198;9.920;2022-10-16T12:27:57;100751.28;;;20.03;55.09
13968;BME280;39536;52.198;9.920;2022-10-16T12:30:27;100744.19;;;20.29;54.53
13968;BME280;39536;52.198;9.920;2022-10-16T12:32:55;100751.25;;;20.67;53.55
13968;BME280;39536;52.198;9.920;2022-10-16T12:35:24;100746.69;;;20.69;53.47
13968;BME280;39536;52.198;9.920;2022-10-16T12:37:53;100758.22;;;20.81;53.55
13968;BME280;39536;52.198;9.920;2022-10-16T12:40:27;100754.91;;;20.77;52.66
13968;BME280;39536;52.198;9.920;2022-10-16T12:42:54;100757.53;;;20.53;52.56
13968;BME280;39536;52.198;9.920;2022-10-16T12:45:27;100759.19;;;20.42;53.73
13968;BME280;39536;52.198;9.920;2022-10-16T12:47:55;100763.97;;;20.24;53.23
13968;BME280;39536;52.198;9.920;2022-10-16T12:50:29;100756.88;;;20.12;53.80
13968;BME280;39536;52.198;9.920;2022-10-16T12:52:58;100763.00;;;19.99;54.37
13968;BME280;39536;52.198;9.920;2022-10-16T12:55:26;100760.56;;;19.83;54.75
13968;BME280;39536;52.198;9.920;2022-10-16T12:58:23;100763.63;;;19.90;54.89
13968;BME280;39536;52.198;9.920;2022-10-16T13:00:57;100769.25;;;20.37;54.53
13968;BME280;39536;52.198;9.920;2022-10-16T13:03:48;100777.63;;;20.30;54.16
13968;BME280;39536;52.198;9.920;2022-10-16T13:06:28;100778.66;;;20.02;54.11